createdAt,value
2017-12-12T00:00:43.264Z,85.91
2017-12-12T00:01:43.254Z,85.43
2017-12-12T00:02:43.250Z,85.43
2017-12-12T00:03:43.246Z,85.58
2017-12-12T00:04:43.236Z,84.67
2017-12-12T00:05:43.229Z,85.01
2017-12-12T00:06:43.717Z,85.68
2017-12-12T00:07:43.215Z,85.11
2017-12-12T00:08:43.207Z,85.30
2017-12-12T00:09:43.204Z,85.01
2017-12-12T00:10:43.204Z,85.20
2017-12-12T00:11:43.381Z,85.77
2017-12-12T00:12:43.197Z,85.20
2017-12-12T00:13:43.176Z,83.68
2017-12-12T00:14:43.165Z,84.01
2017-12-12T00:15:43.404Z,84.82
2017-12-12T00:16:43.348Z,85.01
2017-12-12T00:17:43.366Z,85.30
2017-12-12T00:18:43.257Z,85.20
2017-12-12T00:19:43.131Z,85.58
2017-12-12T00:20:43.135Z,86.34
2017-12-12T00:21:43.124Z,86.82
2017-12-12T00:22:43.121Z,86.24
2017-12-12T00:23:43.113Z,86.24
2017-12-12T00:24:43.303Z,86.34
2017-12-12T00:25:43.609Z,86.34
2017-12-12T00:26:43.089Z,87.57
2017-12-12T00:27:43.083Z,87.48
2017-12-12T00:28:43.080Z,86.72
2017-12-12T00:29:43.068Z,86.63
2017-12-12T00:30:43.064Z,86.82
2017-12-12T00:31:43.406Z,86.34
2017-12-12T00:32:43.294Z,86.91
2017-12-12T00:33:43.140Z,87.57
2017-12-12T00:34:43.032Z,87.19
2017-12-12T00:35:43.039Z,87.57
2017-12-12T00:36:43.024Z,87.76
2017-12-12T00:37:43.018Z,87.01
2017-12-12T00:38:43.007Z,87.48
2017-12-12T00:39:43.003Z,86.82
2017-12-12T00:40:42.996Z,85.96
2017-12-12T00:41:42.990Z,86.05
2017-12-12T00:42:42.987Z,85.58
2017-12-12T00:43:42.978Z,85.01
2017-12-12T00:44:43.482Z,85.30
2017-12-12T00:45:43.107Z,85.20
2017-12-12T00:46:42.959Z,84.72
2017-12-12T00:47:42.950Z,84.72
2017-12-12T00:48:42.944Z,83.97
2017-12-12T00:49:42.937Z,84.16
2017-12-12T00:50:42.930Z,83.97
2017-12-12T00:51:43.105Z,84.63
2017-12-12T00:52:43.059Z,83.97
2017-12-12T00:53:42.908Z,84.44
2017-12-12T00:54:42.902Z,84.53
2017-12-12T00:55:42.892Z,83.11
2017-12-12T00:56:42.887Z,83.20
2017-12-12T00:57:42.879Z,82.92
2017-12-12T00:58:42.874Z,83.49
2017-12-12T00:59:43.284Z,83.11
2017-12-12T01:00:43.172Z,83.68
2017-12-12T01:01:42.857Z,83.68
2017-12-12T01:02:42.846Z,83.78
2017-12-12T01:03:42.838Z,83.97
2017-12-12T01:04:42.833Z,83.59
2017-12-12T01:05:42.822Z,83.39
2017-12-12T01:06:43.038Z,84.16
2017-12-12T01:07:43.187Z,85.20
2017-12-12T01:08:42.806Z,85.49
2017-12-12T01:09:42.798Z,85.20
2017-12-12T01:10:42.792Z,85.30
2017-12-12T01:11:42.783Z,85.68
2017-12-12T01:12:42.777Z,84.91
2017-12-12T01:13:42.986Z,84.82
2017-12-12T01:14:42.973Z,85.01
2017-12-12T01:15:42.795Z,85.68
2017-12-12T01:16:42.751Z,86.15
2017-12-12T01:17:42.750Z,85.58
2017-12-12T01:18:42.738Z,84.91
2017-12-12T01:19:42.733Z,85.58
2017-12-12T01:20:42.723Z,86.15
2017-12-12T01:21:42.970Z,86.24
2017-12-12T01:22:42.710Z,86.15
2017-12-12T01:23:42.703Z,86.82
2017-12-12T01:24:42.698Z,86.63
2017-12-12T01:25:43.011Z,86.43
2017-12-12T01:26:42.715Z,86.72
2017-12-12T01:27:42.683Z,86.53
2017-12-12T01:28:42.673Z,86.15
2017-12-12T01:29:42.724Z,85.11
2017-12-12T01:30:42.654Z,83.78
2017-12-12T01:31:42.653Z,83.59
2017-12-12T01:32:42.634Z,82.07
2017-12-12T01:33:42.629Z,83.11
2017-12-12T01:34:42.628Z,83.11
2017-12-12T01:35:42.630Z,82.54
2017-12-12T01:36:42.615Z,83.01
2017-12-12T01:37:42.603Z,83.01
2017-12-12T01:38:42.891Z,82.54
2017-12-12T01:39:42.595Z,83.11
2017-12-12T01:40:42.580Z,82.92
2017-12-12T01:41:42.569Z,83.87
2017-12-12T01:42:42.567Z,84.49
2017-12-12T01:43:42.553Z,84.40
2017-12-12T01:44:42.660Z,85.44
2017-12-12T01:45:42.627Z,85.82
2017-12-12T01:46:42.626Z,85.53
2017-12-12T01:47:42.523Z,85.53
2017-12-12T01:48:42.517Z,86.11
2017-12-12T01:49:42.508Z,87.15
2017-12-12T01:50:42.500Z,87.15
2017-12-12T01:51:42.491Z,87.15
2017-12-12T01:52:42.481Z,86.30
2017-12-12T01:53:42.475Z,84.83
2017-12-12T01:54:42.527Z,85.40
2017-12-12T01:55:42.464Z,85.97
2017-12-12T01:56:42.446Z,86.07
2017-12-12T01:57:42.610Z,85.49
2017-12-12T01:58:42.441Z,84.07
2017-12-12T01:59:42.467Z,83.88
2017-12-12T02:00:42.409Z,82.84
2017-12-12T02:01:42.404Z,82.93
2017-12-12T02:02:42.398Z,82.36
2017-12-12T02:03:42.384Z,82.55
2017-12-12T02:04:42.377Z,82.93
2017-12-12T02:05:42.366Z,83.17
2017-12-12T02:06:42.356Z,83.08
2017-12-12T02:07:42.351Z,83.55
2017-12-12T02:08:42.361Z,83.46
2017-12-12T02:09:42.513Z,83.36
2017-12-12T02:10:42.399Z,83.08
2017-12-12T02:11:42.311Z,83.84
2017-12-12T02:12:42.307Z,83.74
2017-12-12T02:13:42.298Z,83.84
2017-12-12T02:14:42.295Z,84.22
2017-12-12T02:15:42.605Z,84.69
2017-12-12T02:16:42.336Z,84.98
2017-12-12T02:17:42.259Z,85.07
2017-12-12T02:18:42.262Z,85.55
2017-12-12T02:19:42.241Z,86.11
2017-12-12T02:20:42.232Z,86.02
2017-12-12T02:21:42.224Z,86.02
2017-12-12T02:22:42.216Z,86.21
2017-12-12T02:23:42.206Z,86.02
2017-12-12T02:24:42.407Z,86.68
2017-12-12T02:25:42.191Z,86.40
2017-12-12T02:26:42.187Z,86.97
2017-12-12T02:27:42.166Z,87.16
2017-12-12T02:28:42.677Z,87.06
2017-12-12T02:29:42.314Z,87.45
2017-12-12T02:30:42.299Z,87.02
2017-12-12T02:31:42.139Z,87.02
2017-12-12T02:32:42.127Z,88.35
2017-12-12T02:33:42.120Z,87.82
2017-12-12T02:34:42.110Z,87.49
2017-12-12T02:35:42.100Z,87.49
2017-12-12T02:36:42.417Z,87.54
2017-12-12T02:37:42.168Z,87.82
2017-12-12T02:38:42.073Z,87.63
2017-12-12T02:39:42.067Z,87.59
2017-12-12T02:40:42.056Z,87.77
2017-12-12T02:41:42.048Z,88.82
2017-12-12T02:42:42.040Z,88.25
2017-12-12T02:43:42.033Z,87.97
2017-12-12T02:44:42.024Z,88.06
2017-12-12T02:45:42.015Z,88.44
2017-12-12T02:46:42.105Z,87.68
2017-12-12T02:47:41.996Z,87.59
2017-12-12T02:48:41.982Z,87.21
2017-12-12T02:49:42.145Z,87.30
2017-12-12T02:50:41.962Z,87.02
2017-12-12T02:51:41.962Z,86.64
2017-12-12T02:52:41.957Z,87.21
2017-12-12T02:53:41.946Z,87.77
2017-12-12T02:54:41.944Z,88.06
2017-12-12T02:55:41.927Z,87.30
2017-12-12T02:56:41.921Z,87.21
2017-12-12T02:57:41.912Z,87.40
2017-12-12T02:58:41.901Z,87.40
2017-12-12T02:59:41.894Z,87.40
2017-12-12T03:00:41.884Z,87.97
2017-12-12T03:01:41.879Z,87.21
2017-12-12T03:02:41.865Z,88.06
2017-12-12T03:03:41.856Z,88.82
2017-12-12T03:04:41.927Z,89.29
2017-12-12T03:05:42.061Z,89.86
2017-12-12T03:06:41.835Z,89.86
2017-12-12T03:07:41.862Z,90.43
2017-12-12T03:08:41.879Z,91.28
2017-12-12T03:09:41.947Z,93.37
2017-12-12T03:10:42.080Z,93.61
2017-12-12T03:11:41.905Z,94.93
2017-12-12T03:12:41.773Z,95.50
2017-12-12T03:13:41.766Z,96.73
2017-12-12T03:14:41.760Z,96.26
2017-12-12T03:15:41.747Z,95.88
2017-12-12T03:16:41.963Z,95.98
2017-12-12T03:17:42.072Z,95.50
2017-12-12T03:18:41.781Z,95.60
2017-12-12T03:19:41.708Z,95.03
2017-12-12T03:20:41.703Z,95.31
2017-12-12T03:21:41.690Z,95.03
2017-12-12T03:22:41.675Z,95.12
2017-12-12T03:23:41.674Z,95.03
2017-12-12T03:24:41.664Z,94.93
2017-12-12T03:25:41.874Z,94.46
2017-12-12T03:26:41.644Z,94.46
2017-12-12T03:27:41.634Z,93.51
2017-12-12T03:28:41.618Z,94.37
2017-12-12T03:29:41.615Z,94.46
2017-12-12T03:30:41.606Z,94.93
2017-12-12T03:31:41.598Z,94.84
2017-12-12T03:32:41.683Z,95.50
2017-12-12T03:33:41.730Z,96.26
2017-12-12T03:34:41.568Z,96.36
2017-12-12T03:35:41.559Z,96.92
2017-12-12T03:36:41.543Z,97.11
2017-12-12T03:37:41.542Z,97.30
2017-12-12T03:38:41.531Z,97.49
2017-12-12T03:39:41.522Z,97.11
2017-12-12T03:40:41.513Z,96.92
2017-12-12T03:41:41.587Z,96.92
2017-12-12T03:42:41.574Z,96.92
2017-12-12T03:43:41.484Z,97.11
2017-12-12T03:44:41.477Z,96.73
2017-12-12T03:45:41.469Z,97.40
2017-12-12T03:46:41.461Z,96.83
2017-12-12T03:47:41.764Z,97.40
2017-12-12T03:48:41.441Z,97.11
2017-12-12T03:49:41.429Z,97.21
2017-12-12T03:50:41.427Z,97.30
2017-12-12T03:51:41.413Z,97.21
2017-12-12T03:52:41.404Z,97.49
2017-12-12T03:53:41.398Z,96.36
2017-12-12T03:54:41.386Z,96.36
2017-12-12T03:55:41.491Z,95.31
2017-12-12T03:56:41.367Z,94.93
2017-12-12T03:57:41.360Z,95.98
2017-12-12T03:58:41.358Z,95.60
2017-12-12T03:59:41.340Z,95.60
2017-12-12T04:00:41.592Z,94.93
2017-12-12T04:01:41.324Z,95.31
2017-12-12T04:02:41.314Z,94.93
2017-12-12T04:03:41.304Z,94.18
2017-12-12T04:04:41.624Z,94.37
2017-12-12T04:05:41.429Z,94.27
2017-12-12T04:06:41.526Z,93.51
2017-12-12T04:07:41.273Z,92.57
2017-12-12T04:08:41.260Z,92.38
2017-12-12T04:09:41.248Z,91.81
2017-12-12T04:10:41.239Z,91.52
2017-12-12T04:11:41.232Z,91.43
2017-12-12T04:12:41.370Z,91.71
2017-12-12T04:13:41.210Z,92.00
2017-12-12T04:14:41.207Z,90.67
2017-12-12T04:15:41.195Z,90.20
2017-12-12T04:16:41.189Z,90.58
2017-12-12T04:17:41.253Z,91.05
2017-12-12T04:18:41.167Z,90.67
2017-12-12T04:19:41.156Z,90.95
2017-12-12T04:20:41.146Z,90.39
2017-12-12T04:21:41.137Z,90.48
2017-12-12T04:22:41.130Z,90.01
2017-12-12T04:23:41.120Z,90.01
2017-12-12T04:24:41.110Z,89.91
2017-12-12T04:25:41.100Z,90.10
2017-12-12T04:26:41.093Z,89.53
2017-12-12T04:27:41.157Z,90.01
2017-12-12T04:28:41.268Z,89.63
2017-12-12T04:29:41.061Z,89.06
2017-12-12T04:30:41.055Z,88.96
2017-12-12T04:31:41.042Z,89.44
2017-12-12T04:32:41.034Z,89.15
2017-12-12T04:33:41.028Z,88.59
2017-12-12T04:34:41.014Z,88.73
2017-12-12T04:35:41.107Z,88.87
2017-12-12T04:36:40.997Z,88.96
2017-12-12T04:37:41.122Z,89.44
2017-12-12T04:38:40.973Z,88.87
2017-12-12T04:39:40.967Z,88.87
2017-12-12T04:40:40.955Z,89.11
2017-12-12T04:41:40.948Z,88.87
2017-12-12T04:42:40.940Z,89.15
2017-12-12T04:43:40.927Z,88.82
2017-12-12T04:44:41.103Z,88.68
2017-12-12T04:45:41.155Z,89.15
2017-12-12T04:46:40.908Z,88.78
2017-12-12T04:47:40.892Z,88.92
2017-12-12T04:48:40.891Z,88.59
2017-12-12T04:49:40.877Z,88.30
2017-12-12T04:50:40.868Z,88.21
2017-12-12T04:51:40.860Z,88.78
2017-12-12T04:52:41.064Z,88.73
2017-12-12T04:53:40.840Z,87.97
2017-12-12T04:54:40.827Z,88.16
2017-12-12T04:55:41.017Z,88.30
2017-12-12T04:56:40.814Z,88.49
2017-12-12T04:57:40.805Z,88.54
2017-12-12T04:58:40.793Z,88.73
2017-12-12T04:59:40.787Z,87.87
2017-12-12T05:00:40.775Z,87.77
2017-12-12T05:01:40.768Z,87.68
2017-12-12T05:02:40.902Z,87.59
2017-12-12T05:03:40.771Z,87.77
2017-12-12T05:04:40.740Z,87.30
2017-12-12T05:05:40.728Z,87.02
2017-12-12T05:06:40.715Z,87.87
2017-12-12T05:07:40.715Z,87.49
2017-12-12T05:08:40.706Z,87.68
2017-12-12T05:09:40.693Z,87.40
2017-12-12T05:10:40.684Z,88.16
2017-12-12T05:11:40.671Z,87.87
2017-12-12T05:12:40.665Z,87.77
2017-12-12T05:13:40.656Z,87.49
2017-12-12T05:14:40.649Z,87.87
2017-12-12T05:15:40.637Z,87.40
2017-12-12T05:16:40.630Z,87.30
2017-12-12T05:17:40.960Z,87.68
2017-12-12T05:18:40.614Z,86.64
2017-12-12T05:19:40.602Z,86.83
2017-12-12T05:20:40.594Z,87.77
2017-12-12T05:21:40.581Z,88.63
2017-12-12T05:22:40.575Z,87.97
2017-12-12T05:23:40.566Z,87.87
2017-12-12T05:24:40.559Z,87.77
2017-12-12T05:25:40.544Z,87.59
2017-12-12T05:26:40.540Z,87.77
2017-12-12T05:27:40.529Z,88.16
2017-12-12T05:28:40.517Z,87.97
2017-12-12T05:29:40.512Z,87.40
2017-12-12T05:30:40.504Z,87.49
2017-12-12T05:31:40.490Z,86.93
2017-12-12T05:32:40.485Z,87.77
2017-12-12T05:33:40.477Z,87.49
2017-12-12T05:34:40.467Z,86.74
2017-12-12T05:35:40.456Z,86.35
2017-12-12T05:36:40.449Z,86.64
2017-12-12T05:37:40.438Z,86.83
2017-12-12T05:38:40.427Z,86.83
2017-12-12T05:39:40.420Z,86.35
2017-12-12T05:40:40.408Z,86.35
2017-12-12T05:41:40.398Z,86.83
2017-12-12T05:42:40.393Z,86.74
2017-12-12T05:43:40.385Z,86.74
2017-12-12T05:44:40.376Z,86.07
2017-12-12T05:45:40.368Z,86.16
2017-12-12T05:46:40.357Z,86.07
2017-12-12T05:47:40.347Z,86.16
2017-12-12T05:48:40.341Z,85.97
2017-12-12T05:49:40.331Z,85.97
2017-12-12T05:50:40.324Z,86.16
2017-12-12T05:51:40.307Z,85.88
2017-12-12T05:52:40.298Z,86.16
2017-12-12T05:53:40.298Z,85.69
2017-12-12T05:54:40.289Z,85.97
2017-12-12T05:55:40.275Z,85.97
2017-12-12T05:56:40.263Z,85.78
2017-12-12T05:57:40.259Z,86.16
2017-12-12T05:58:40.249Z,86.16
2017-12-12T05:59:40.242Z,85.69
2017-12-12T06:00:40.230Z,85.88
2017-12-12T06:01:40.222Z,85.50
2017-12-12T06:02:40.210Z,85.50
2017-12-12T06:03:40.204Z,85.97
2017-12-12T06:04:40.192Z,86.07
2017-12-12T06:05:40.185Z,86.74
2017-12-12T06:06:40.172Z,87.30
2017-12-12T06:07:40.165Z,87.77
2017-12-12T06:08:40.156Z,87.77
2017-12-12T06:09:40.149Z,87.21
2017-12-12T06:10:40.136Z,88.25
2017-12-12T06:11:40.128Z,86.83
2017-12-12T06:12:40.115Z,86.74
2017-12-12T06:13:40.109Z,86.83
2017-12-12T06:14:40.102Z,86.55
2017-12-12T06:15:40.089Z,86.74
2017-12-12T06:16:40.082Z,86.74
2017-12-12T06:17:40.074Z,86.35
2017-12-12T06:18:40.064Z,86.74
2017-12-12T06:19:40.056Z,86.83
2017-12-12T06:20:40.049Z,85.97
2017-12-12T06:21:40.038Z,85.97
2017-12-12T06:22:40.031Z,85.31
2017-12-12T06:23:40.021Z,86.07
2017-12-12T06:24:40.009Z,85.60
2017-12-12T06:25:40.002Z,85.78
2017-12-12T06:26:39.991Z,86.16
2017-12-12T06:27:39.980Z,85.13
2017-12-12T06:28:40.005Z,85.13
2017-12-12T06:29:39.963Z,85.13
2017-12-12T06:30:39.954Z,84.84
2017-12-12T06:31:39.940Z,85.31
2017-12-12T06:32:39.936Z,85.22
2017-12-12T06:33:39.929Z,85.78
2017-12-12T06:34:39.915Z,85.03
2017-12-12T06:35:39.904Z,85.41
2017-12-12T06:36:39.898Z,85.60
2017-12-12T06:37:39.884Z,85.13
2017-12-12T06:38:39.881Z,84.94
2017-12-12T06:39:39.870Z,85.60
2017-12-12T06:40:39.860Z,85.22
2017-12-12T06:41:39.852Z,85.13
2017-12-12T06:42:39.840Z,85.03
2017-12-12T06:43:39.829Z,84.46
2017-12-12T06:44:39.824Z,84.74
2017-12-12T06:45:39.816Z,85.03
2017-12-12T06:46:39.806Z,85.13
2017-12-12T06:47:39.793Z,84.17
2017-12-12T06:48:39.787Z,83.70
2017-12-12T06:49:39.783Z,84.27
2017-12-12T06:50:39.771Z,84.27
2017-12-12T06:51:39.763Z,84.36
2017-12-12T06:52:39.753Z,84.46
2017-12-12T06:53:39.751Z,84.94
2017-12-12T06:54:39.732Z,84.74
2017-12-12T06:55:39.723Z,85.03
2017-12-12T06:56:39.714Z,84.94
2017-12-12T06:57:39.708Z,84.17
2017-12-12T06:58:39.692Z,83.98
2017-12-12T06:59:39.690Z,83.89
2017-12-12T07:00:39.679Z,83.42
2017-12-12T07:01:39.669Z,83.70
2017-12-12T07:02:39.668Z,83.61
2017-12-12T07:03:39.649Z,83.98
2017-12-12T07:04:39.638Z,84.17
2017-12-12T07:05:39.634Z,83.70
2017-12-12T07:06:39.624Z,83.32
2017-12-12T07:07:39.615Z,83.70
2017-12-12T07:08:39.602Z,83.80
2017-12-12T07:09:39.596Z,83.51
2017-12-12T07:10:39.588Z,83.61
2017-12-12T07:11:39.577Z,84.17
2017-12-12T07:12:39.567Z,83.80
2017-12-12T07:13:39.559Z,83.80
2017-12-12T07:14:39.550Z,83.80
2017-12-12T07:15:39.542Z,83.42
2017-12-12T07:16:39.528Z,83.51
2017-12-12T07:17:39.521Z,83.89
2017-12-12T07:18:39.519Z,84.17
2017-12-12T07:19:39.504Z,84.55
2017-12-12T07:20:39.494Z,84.08
2017-12-12T07:21:39.483Z,84.08
2017-12-12T07:22:39.475Z,84.17
2017-12-12T07:23:39.461Z,84.17
2017-12-12T07:24:39.456Z,84.74
2017-12-12T07:25:39.451Z,84.65
2017-12-12T07:26:39.433Z,84.55
2017-12-12T07:27:39.430Z,84.55
2017-12-12T07:28:39.417Z,84.55
2017-12-12T07:29:39.412Z,84.46
2017-12-12T07:30:39.405Z,84.55
2017-12-12T07:31:39.393Z,84.17
2017-12-12T07:32:39.385Z,84.36
2017-12-12T07:33:39.373Z,84.08
2017-12-12T07:34:39.367Z,84.51
2017-12-12T07:35:39.357Z,84.74
2017-12-12T07:36:39.343Z,84.36
2017-12-12T07:37:39.342Z,84.55
2017-12-12T07:38:39.325Z,84.65
2017-12-12T07:39:39.317Z,84.36
2017-12-12T07:40:39.305Z,84.42
2017-12-12T07:41:39.302Z,84.99
2017-12-12T07:42:39.292Z,84.89
2017-12-12T07:43:39.279Z,84.70
2017-12-12T07:44:39.275Z,84.99
2017-12-12T07:45:39.261Z,84.70
2017-12-12T07:46:39.259Z,84.51
2017-12-12T07:47:39.247Z,84.61
2017-12-12T07:48:39.237Z,84.61
2017-12-12T07:49:39.233Z,84.61
2017-12-12T07:50:39.221Z,84.51
2017-12-12T07:51:39.210Z,84.13
2017-12-12T07:52:39.206Z,84.51
2017-12-12T07:53:39.193Z,84.61
2017-12-12T07:54:39.186Z,84.42
2017-12-12T07:55:39.171Z,84.51
2017-12-12T07:56:39.167Z,84.61
2017-12-12T07:57:39.157Z,84.32
2017-12-12T07:58:39.149Z,84.70
2017-12-12T07:59:39.144Z,84.99
2017-12-12T08:00:39.130Z,84.99
2017-12-12T08:01:39.117Z,84.89
2017-12-12T08:02:39.112Z,84.70
2017-12-12T08:03:39.099Z,85.08
2017-12-12T08:04:39.097Z,84.89
2017-12-12T08:05:39.080Z,85.27
2017-12-12T08:06:39.077Z,85.27
2017-12-12T08:07:39.064Z,85.27
2017-12-12T08:08:39.059Z,85.08
2017-12-12T08:09:39.053Z,84.89
2017-12-12T08:10:39.041Z,85.27
2017-12-12T08:11:39.033Z,85.46
2017-12-12T08:12:39.025Z,85.65
2017-12-12T08:13:39.017Z,85.27
2017-12-12T08:14:39.007Z,84.99
2017-12-12T08:15:38.995Z,85.08
2017-12-12T08:16:38.997Z,85.55
2017-12-12T08:17:38.982Z,85.27
2017-12-12T08:18:38.973Z,85.36
2017-12-12T08:19:38.978Z,84.70
2017-12-12T08:20:38.955Z,84.70
2017-12-12T08:21:38.946Z,85.08
2017-12-12T08:22:38.939Z,85.74
2017-12-12T08:23:38.928Z,85.46
2017-12-12T08:24:38.919Z,85.27
2017-12-12T08:25:38.904Z,84.89
2017-12-12T08:26:38.903Z,85.55
2017-12-12T08:27:38.892Z,84.89
2017-12-12T08:28:38.883Z,85.27
2017-12-12T08:29:38.876Z,85.36
2017-12-12T08:30:38.865Z,85.55
2017-12-12T08:31:38.875Z,85.46
2017-12-12T08:32:38.862Z,85.46
2017-12-12T08:33:38.841Z,85.93
2017-12-12T08:34:38.833Z,85.84
2017-12-12T08:35:38.824Z,85.93
2017-12-12T08:36:38.813Z,85.84
2017-12-12T08:37:38.810Z,85.46
2017-12-12T08:38:38.799Z,85.55
2017-12-12T08:39:38.790Z,85.36
2017-12-12T08:40:38.781Z,85.93
2017-12-12T08:41:38.804Z,85.93
2017-12-12T08:42:38.765Z,86.12
2017-12-12T08:43:38.757Z,86.03
2017-12-12T08:44:38.752Z,85.93
2017-12-12T08:45:38.739Z,86.79
2017-12-12T08:46:38.729Z,86.60
2017-12-12T08:47:38.731Z,86.03
2017-12-12T08:48:38.712Z,86.60
2017-12-12T08:49:38.708Z,86.31
2017-12-12T08:50:38.698Z,86.60
2017-12-12T08:51:38.688Z,86.79
2017-12-12T08:52:38.683Z,87.35
2017-12-12T08:53:38.671Z,87.07
2017-12-12T08:54:38.670Z,87.26
2017-12-12T08:55:38.655Z,87.54
2017-12-12T08:56:38.643Z,87.35
2017-12-12T08:57:38.642Z,87.35
2017-12-12T08:58:38.631Z,87.40
2017-12-12T08:59:38.621Z,86.98
2017-12-12T09:00:38.611Z,87.59
2017-12-12T09:01:38.602Z,88.02
2017-12-12T09:02:38.596Z,87.97
2017-12-12T09:03:38.582Z,87.73
2017-12-12T09:04:38.579Z,87.30
2017-12-12T09:05:38.574Z,87.40
2017-12-12T09:06:38.568Z,87.40
2017-12-12T09:07:38.552Z,88.16
2017-12-12T09:08:38.544Z,87.87
2017-12-12T09:09:38.541Z,87.40
2017-12-12T09:10:38.528Z,88.16
2017-12-12T09:11:38.515Z,88.06
2017-12-12T09:12:38.513Z,87.77
2017-12-12T09:13:38.500Z,87.77
2017-12-12T09:14:38.493Z,87.87
2017-12-12T09:15:38.485Z,87.49
2017-12-12T09:16:38.474Z,87.97
2017-12-12T09:17:38.466Z,87.68
2017-12-12T09:18:38.457Z,87.02
2017-12-12T09:19:38.450Z,86.93
2017-12-12T09:20:38.444Z,86.55
2017-12-12T09:21:38.430Z,86.64
2017-12-12T09:22:38.425Z,86.74
2017-12-12T09:23:38.412Z,86.07
2017-12-12T09:24:38.409Z,86.16
2017-12-12T09:25:38.399Z,85.69
2017-12-12T09:26:38.386Z,85.60
2017-12-12T09:27:38.378Z,85.36
2017-12-12T09:28:38.371Z,84.78
2017-12-12T09:29:38.366Z,85.64
2017-12-12T09:30:38.354Z,85.55
2017-12-12T09:31:38.343Z,85.36
2017-12-12T09:32:38.338Z,85.36
2017-12-12T09:33:38.330Z,85.17
2017-12-12T09:34:38.322Z,83.36
2017-12-12T09:35:38.314Z,83.84
2017-12-12T09:36:38.301Z,84.22
2017-12-12T09:37:38.290Z,84.69
2017-12-12T09:38:38.286Z,83.84
2017-12-12T09:39:38.276Z,83.84
2017-12-12T09:40:38.269Z,83.84
2017-12-12T09:41:38.254Z,83.84
2017-12-12T09:42:38.251Z,83.74
2017-12-12T09:43:38.236Z,83.27
2017-12-12T09:44:38.230Z,82.98
2017-12-12T09:45:38.224Z,82.60
2017-12-12T09:46:38.209Z,83.08
2017-12-12T09:47:38.205Z,83.17
2017-12-12T09:48:38.195Z,82.23
2017-12-12T09:49:38.189Z,82.60
2017-12-12T09:50:38.178Z,82.89
2017-12-12T09:51:38.168Z,82.23
2017-12-12T09:52:38.155Z,82.32
2017-12-12T09:53:38.151Z,82.42
2017-12-12T09:54:38.144Z,81.94
2017-12-12T09:55:38.135Z,82.51
2017-12-12T09:56:38.124Z,81.94
2017-12-12T09:57:38.118Z,81.37
2017-12-12T09:58:38.103Z,82.13
2017-12-12T09:59:38.099Z,81.41
2017-12-12T10:00:38.092Z,82.17
2017-12-12T10:01:38.081Z,82.27
2017-12-12T10:02:38.071Z,81.41
2017-12-12T10:03:38.065Z,81.32
2017-12-12T10:04:38.056Z,81.60
2017-12-12T10:05:38.050Z,81.75
2017-12-12T10:06:38.041Z,81.41
2017-12-12T10:07:38.033Z,81.37
2017-12-12T10:08:38.019Z,82.32
2017-12-12T10:09:38.017Z,82.23
2017-12-12T10:10:38.007Z,81.60
2017-12-12T10:11:37.997Z,81.32
2017-12-12T10:12:37.984Z,81.32
2017-12-12T10:13:37.982Z,80.46
2017-12-12T10:14:37.970Z,80.94
2017-12-12T10:15:37.960Z,80.27
2017-12-12T10:16:37.952Z,80.37
2017-12-12T10:17:37.947Z,80.27
2017-12-12T10:18:37.939Z,80.46
2017-12-12T10:19:37.939Z,80.84
2017-12-12T10:20:37.921Z,80.46
2017-12-12T10:21:37.908Z,80.08
2017-12-12T10:22:37.905Z,80.08
2017-12-12T10:23:37.890Z,79.90
2017-12-12T10:24:37.886Z,79.71
2017-12-12T10:25:37.877Z,80.37
2017-12-12T10:26:37.865Z,79.80
2017-12-12T10:27:37.859Z,79.42
2017-12-12T10:28:37.855Z,79.23
2017-12-12T10:29:37.844Z,80.08
2017-12-12T10:30:37.836Z,80.27
2017-12-12T10:31:37.826Z,80.08
2017-12-12T10:32:37.818Z,80.37
2017-12-12T10:33:37.809Z,80.84
2017-12-12T10:34:37.802Z,80.94
2017-12-12T10:35:37.795Z,80.37
2017-12-12T10:36:37.782Z,80.18
2017-12-12T10:37:37.780Z,80.94
2017-12-12T10:38:37.771Z,80.84
2017-12-12T10:39:37.761Z,80.65
2017-12-12T10:40:37.754Z,80.84
2017-12-12T10:41:37.743Z,80.56
2017-12-12T10:42:37.736Z,80.56
2017-12-12T10:43:37.731Z,81.13
2017-12-12T10:44:37.721Z,81.04
2017-12-12T10:45:37.714Z,81.60
2017-12-12T10:46:37.700Z,81.32
2017-12-12T10:47:37.697Z,80.46
2017-12-12T10:48:37.684Z,81.32
2017-12-12T10:49:37.677Z,81.04
2017-12-12T10:50:37.670Z,81.04
2017-12-12T10:51:37.661Z,81.51
2017-12-12T10:52:37.653Z,80.84
2017-12-12T10:53:37.642Z,81.04
2017-12-12T10:54:37.633Z,81.41
2017-12-12T10:55:37.626Z,81.41
2017-12-12T10:56:37.622Z,81.98
2017-12-12T10:57:37.610Z,82.08
2017-12-12T10:58:37.597Z,82.55
2017-12-12T10:59:37.592Z,81.70
2017-12-12T11:00:37.584Z,81.41
2017-12-12T11:01:37.573Z,81.51
2017-12-12T11:02:37.566Z,81.60
2017-12-12T11:03:37.554Z,82.36
2017-12-12T11:04:37.556Z,81.88
2017-12-12T11:05:37.541Z,82.08
2017-12-12T11:06:37.530Z,82.55
2017-12-12T11:07:37.525Z,82.36
2017-12-12T11:08:37.512Z,81.32
2017-12-12T11:09:37.508Z,81.32
2017-12-12T11:10:37.496Z,81.32
2017-12-12T11:11:37.488Z,81.60
2017-12-12T11:12:37.488Z,81.60
2017-12-12T11:13:37.471Z,81.04
2017-12-12T11:14:37.467Z,80.46
2017-12-12T11:15:37.458Z,81.41
2017-12-12T11:16:37.444Z,81.60
2017-12-12T11:17:37.437Z,81.51
2017-12-12T11:18:37.429Z,81.60
2017-12-12T11:19:37.422Z,81.41
2017-12-12T11:20:37.414Z,81.41
2017-12-12T11:21:37.402Z,81.41
2017-12-12T11:22:37.400Z,81.41
2017-12-12T11:23:37.390Z,81.41
2017-12-12T11:24:37.385Z,81.41
2017-12-12T11:25:37.377Z,81.79
2017-12-12T11:26:37.366Z,81.98
2017-12-12T11:27:37.357Z,81.70
2017-12-12T11:28:37.354Z,82.46
2017-12-12T11:29:37.349Z,82.55
2017-12-12T11:30:37.330Z,82.08
2017-12-12T11:31:37.320Z,82.27
2017-12-12T11:32:37.316Z,82.08
2017-12-12T11:33:37.306Z,81.79
2017-12-12T11:34:37.297Z,82.17
2017-12-12T11:35:37.292Z,82.08
2017-12-12T11:36:37.280Z,81.41
2017-12-12T11:37:37.277Z,82.27
2017-12-12T11:38:37.266Z,82.36
2017-12-12T11:39:37.257Z,82.46
2017-12-12T11:40:37.250Z,82.36
2017-12-12T11:41:37.241Z,81.79
2017-12-12T11:42:37.236Z,81.41
2017-12-12T11:43:37.227Z,82.27
2017-12-12T11:44:37.236Z,82.17
2017-12-12T11:45:37.209Z,81.88
2017-12-12T11:46:37.205Z,82.55
2017-12-12T11:47:37.193Z,82.08
2017-12-12T11:48:37.185Z,82.55
2017-12-12T11:49:37.180Z,83.03
2017-12-12T11:50:37.169Z,83.22
2017-12-12T11:51:37.161Z,82.74
2017-12-12T11:52:37.151Z,82.65
2017-12-12T11:53:37.145Z,82.74
2017-12-12T11:54:37.136Z,82.55
2017-12-12T11:55:37.122Z,82.65
2017-12-12T11:56:37.120Z,82.65
2017-12-12T11:57:37.111Z,82.93
2017-12-12T11:58:37.104Z,81.88
2017-12-12T11:59:37.094Z,82.17
2017-12-12T12:00:37.085Z,82.08
2017-12-12T12:01:37.074Z,82.74
2017-12-12T12:02:37.068Z,82.27
2017-12-12T12:03:37.057Z,82.27
2017-12-12T12:04:37.050Z,81.88
2017-12-12T12:05:37.039Z,82.17
2017-12-12T12:06:37.033Z,81.79
2017-12-12T12:07:37.026Z,81.32
2017-12-12T12:08:37.016Z,81.41
2017-12-12T12:09:37.010Z,81.32
2017-12-12T12:10:37.001Z,81.60
2017-12-12T12:11:36.995Z,81.55
2017-12-12T12:12:36.983Z,82.59
2017-12-12T12:13:36.976Z,82.21
2017-12-12T12:14:36.969Z,82.31
2017-12-12T12:15:36.955Z,82.78
2017-12-12T12:16:36.949Z,82.88
2017-12-12T12:17:36.944Z,82.78
2017-12-12T12:18:36.936Z,82.40
2017-12-12T12:19:36.922Z,82.55
2017-12-12T12:20:36.927Z,83.16
2017-12-12T12:21:36.907Z,83.26
2017-12-12T12:22:36.899Z,83.07
2017-12-12T12:23:36.899Z,83.16
2017-12-12T12:24:36.882Z,82.97
2017-12-12T12:25:36.873Z,82.78
2017-12-12T12:26:36.865Z,82.50
2017-12-12T12:27:36.857Z,82.69
2017-12-12T12:28:36.849Z,82.69
2017-12-12T12:29:36.842Z,82.88
2017-12-12T12:30:36.838Z,82.40
2017-12-12T12:31:36.824Z,82.69
2017-12-12T12:32:36.816Z,82.03
2017-12-12T12:33:36.809Z,82.21
2017-12-12T12:34:36.803Z,82.40
2017-12-12T12:35:36.794Z,81.84
2017-12-12T12:36:36.933Z,81.55
2017-12-12T12:37:36.936Z,81.84
2017-12-12T12:38:36.874Z,81.17
2017-12-12T12:39:36.759Z,80.79
2017-12-12T12:40:36.753Z,81.55
2017-12-12T12:41:36.744Z,80.69
2017-12-12T12:42:37.143Z,80.51
2017-12-12T12:43:36.804Z,80.13
2017-12-12T12:44:36.719Z,80.32
2017-12-12T12:45:36.713Z,80.32
2017-12-12T12:46:36.702Z,80.98
2017-12-12T12:47:36.696Z,81.07
2017-12-12T12:48:36.688Z,81.36
2017-12-12T12:49:36.826Z,81.74
2017-12-12T12:50:36.713Z,81.84
2017-12-12T12:51:36.666Z,81.07
2017-12-12T12:52:36.653Z,81.07